createdAt,value
2019-02-08T00:00:33.925Z,51.65
2019-02-08T00:03:02.649Z,48.02
2019-02-08T00:05:31.453Z,50.55
2019-02-08T00:08:00.460Z,49.42
2019-02-08T00:10:29.437Z,51.85
2019-02-08T00:12:58.687Z,50.45
2019-02-08T00:15:29.026Z,53.25
2019-02-08T00:17:57.664Z,56.08
2019-02-08T00:20:27.326Z,51.68
2019-02-08T00:22:55.906Z,52.23
2019-02-08T00:25:24.824Z,53.00
2019-02-08T00:27:53.843Z,50.08
2019-02-08T00:30:24.142Z,50.92
2019-02-08T00:32:54.176Z,50.25
2019-02-08T00:35:22.979Z,51.08
2019-02-08T00:37:51.795Z,50.88
2019-02-08T00:40:21.084Z,54.58
2019-02-08T00:42:49.680Z,56.13
2019-02-08T00:45:19.079Z,51.90
2019-02-08T00:47:47.948Z,54.33
2019-02-08T00:50:17.717Z,53.00
2019-02-08T00:52:47.653Z,55.10
2019-02-08T00:55:17.589Z,53.73
2019-02-08T00:57:46.263Z,51.05
2019-02-08T01:00:15.964Z,53.95
2019-02-08T01:02:46.238Z,53.02
2019-02-08T01:05:16.530Z,52.50
2019-02-08T01:07:45.219Z,64.90
2019-02-08T01:10:15.597Z,57.17
2019-02-08T01:12:44.562Z,54.65
2019-02-08T01:15:14.630Z,54.27
2019-02-08T01:17:43.350Z,51.98
2019-02-08T01:20:14.451Z,56.60
2019-02-08T01:22:43.280Z,56.58
2019-02-08T01:25:13.347Z,56.42
2019-02-08T01:27:59.674Z,55.40
2019-02-08T01:30:29.809Z,54.08
2019-02-08T01:32:58.513Z,56.00
2019-02-08T01:35:27.096Z,54.33
2019-02-08T01:37:55.853Z,54.58
2019-02-08T01:40:28.873Z,52.58
2019-02-08T01:42:57.488Z,55.00
2019-02-08T01:45:27.384Z,55.92
2019-02-08T01:47:56.387Z,54.45
2019-02-08T01:50:26.485Z,56.77
2019-02-08T01:52:55.344Z,59.10
2019-02-08T01:55:24.493Z,55.00
2019-02-08T01:57:53.255Z,60.70
2019-02-08T02:00:23.107Z,58.08
2019-02-08T02:02:51.971Z,53.73
2019-02-08T02:05:20.878Z,58.23
2019-02-08T02:07:50.037Z,57.40
2019-02-08T02:10:25.381Z,54.88
2019-02-08T02:12:54.114Z,56.92
2019-02-08T02:15:22.931Z,63.38
2019-02-08T02:17:51.542Z,55.63
2019-02-08T02:20:26.966Z,62.43
2019-02-08T02:22:55.463Z,56.45
2019-02-08T02:25:24.946Z,72.90
2019-02-08T02:27:53.989Z,59.25
2019-02-08T02:30:23.894Z,55.00
2019-02-08T02:32:52.517Z,60.20
2019-02-08T02:35:21.625Z,56.58
2019-02-08T02:37:55.333Z,55.30
2019-02-08T02:40:24.293Z,56.65
2019-02-08T02:42:53.166Z,58.30
2019-02-08T02:45:30.334Z,54.30
2019-02-08T02:47:59.297Z,55.80
2019-02-08T02:50:28.109Z,60.20
2019-02-08T02:52:57.890Z,54.95
2019-02-08T02:55:27.450Z,54.48
2019-02-08T02:57:56.265Z,55.90
2019-02-08T03:00:26.132Z,52.78
2019-02-08T03:02:54.685Z,55.45
2019-02-08T03:05:23.277Z,56.73
2019-02-08T03:07:51.925Z,57.38
2019-02-08T03:10:21.181Z,58.55
2019-02-08T03:12:50.001Z,56.75
2019-02-08T03:15:22.849Z,57.08
2019-02-08T03:17:51.742Z,56.70
2019-02-08T03:20:24.319Z,55.73
2019-02-08T03:22:53.016Z,55.98
2019-02-08T03:25:22.963Z,58.70
2019-02-08T03:27:51.701Z,58.95
2019-02-08T03:30:25.582Z,59.60
2019-02-08T03:32:54.501Z,56.15
2019-02-08T03:35:24.110Z,56.58
2019-02-08T03:38:01.938Z,56.15
2019-02-08T03:40:31.213Z,53.08
2019-02-08T03:43:00.171Z,55.98
2019-02-08T03:45:30.645Z,55.78
2019-02-08T03:47:59.387Z,56.55
2019-02-08T03:50:29.306Z,54.75
2019-02-08T03:52:58.023Z,52.53
2019-02-08T03:55:26.749Z,53.40
2019-02-08T03:57:55.605Z,54.80
2019-02-08T04:00:29.732Z,52.65
2019-02-08T04:02:58.617Z,54.88
2019-02-08T04:05:27.132Z,54.40
2019-02-08T04:07:57.381Z,55.23
2019-02-08T04:10:26.546Z,51.05
2019-02-08T04:12:55.158Z,56.10
2019-02-08T04:15:24.522Z,53.40
2019-02-08T04:17:53.481Z,53.87
2019-02-08T04:20:26.138Z,57.27
2019-02-08T04:22:56.193Z,52.55
2019-02-08T04:25:25.908Z,58.20
2019-02-08T04:27:55.074Z,54.53
2019-02-08T04:30:24.895Z,55.90
2019-02-08T04:32:53.481Z,54.93
2019-02-08T04:35:22.432Z,51.90
2019-02-08T04:37:51.133Z,50.98
2019-02-08T04:40:20.865Z,52.85
2019-02-08T04:42:49.693Z,49.85
2019-02-08T04:45:18.304Z,53.48
2019-02-08T04:47:46.780Z,51.45
2019-02-08T04:50:24.233Z,53.35
2019-02-08T04:53:00.438Z,51.92
2019-02-08T04:55:34.917Z,49.42
2019-02-08T04:58:03.861Z,51.58
2019-02-08T05:00:36.145Z,48.75
2019-02-08T05:03:04.937Z,48.48
2019-02-08T05:05:36.882Z,51.83
2019-02-08T05:08:05.665Z,52.27
2019-02-08T05:10:34.427Z,46.05
2019-02-08T05:13:03.068Z,57.50
2019-02-08T05:15:34.771Z,55.60
2019-02-08T05:18:03.642Z,52.08
2019-02-08T05:20:32.223Z,51.33
2019-02-08T05:23:01.333Z,45.65
2019-02-08T05:25:30.052Z,53.42
2019-02-08T05:27:59.105Z,46.98
2019-02-08T05:30:29.110Z,61.63
2019-02-08T05:32:58.072Z,55.10
2019-02-08T05:35:26.942Z,59.03
2019-02-08T05:37:55.626Z,52.53
2019-02-08T05:40:24.481Z,66.42
2019-02-08T05:42:52.992Z,58.00
2019-02-08T05:45:22.440Z,62.75
2019-02-08T05:47:52.730Z,66.55
2019-02-08T05:50:25.569Z,65.17
2019-02-08T05:52:57.229Z,71.75
2019-02-08T05:55:27.227Z,70.75
2019-02-08T05:57:55.777Z,68.10
2019-02-08T06:00:33.129Z,72.00
2019-02-08T06:03:01.731Z,60.90
2019-02-08T06:05:30.480Z,56.48
2019-02-08T06:07:59.303Z,60.80
2019-02-08T06:10:27.925Z,65.92
2019-02-08T06:12:57.728Z,70.08
2019-02-08T06:15:26.452Z,68.45
2019-02-08T06:18:00.665Z,75.22
2019-02-08T06:20:29.260Z,67.10
2019-02-08T06:22:58.056Z,64.40
2019-02-08T06:25:28.589Z,78.22
2019-02-08T06:27:57.497Z,70.83
2019-02-08T06:30:28.048Z,72.22
2019-02-08T06:32:56.816Z,69.72
2019-02-08T06:35:25.785Z,69.15
2019-02-08T06:37:54.598Z,73.45
2019-02-08T06:40:25.591Z,65.78
2019-02-08T06:42:57.506Z,82.90
2019-02-08T06:45:26.930Z,77.37
2019-02-08T06:47:55.429Z,73.42
2019-02-08T06:50:25.649Z,64.60
2019-02-08T06:52:54.584Z,64.85
2019-02-08T06:55:23.324Z,60.52
2019-02-08T06:57:53.929Z,66.72
2019-02-08T07:00:30.549Z,63.33
2019-02-08T07:03:06.684Z,60.17
2019-02-08T07:05:36.829Z,73.75
2019-02-08T07:08:16.520Z,64.60
2019-02-08T07:10:47.124Z,66.17
2019-02-08T07:13:17.865Z,59.05
2019-02-08T07:15:57.129Z,55.65
2019-02-08T07:18:43.621Z,64.15
2019-02-08T07:21:22.698Z,67.30
2019-02-08T07:23:53.621Z,66.97
2019-02-08T07:26:29.840Z,64.03
2019-02-08T07:29:05.973Z,67.47
2019-02-08T07:31:56.066Z,64.05
2019-02-08T07:34:44.470Z,61.23
2019-02-08T07:37:31.048Z,63.65
2019-02-08T07:40:06.358Z,60.90
2019-02-08T07:42:45.414Z,58.58
2019-02-08T07:45:30.828Z,55.00
2019-02-08T07:48:03.977Z,52.60
2019-02-08T07:50:37.006Z,52.85
2019-02-08T07:53:09.682Z,48.52
2019-02-08T07:55:55.378Z,48.92
2019-02-08T07:58:28.742Z,44.53
2019-02-08T08:01:08.154Z,46.98
2019-02-08T08:03:41.181Z,44.48
2019-02-08T08:06:20.613Z,42.90
2019-02-08T08:09:07.129Z,40.50
2019-02-08T08:11:43.070Z,41.02
2019-02-08T08:14:13.458Z,38.42
2019-02-08T08:16:46.314Z,40.30
2019-02-08T08:19:26.310Z,39.75
2019-02-08T08:22:02.109Z,39.48
2019-02-08T08:24:41.180Z,39.63
2019-02-08T08:27:11.371Z,39.05
2019-02-08T08:29:41.691Z,41.42
2019-02-08T08:32:11.912Z,38.10
2019-02-08T08:34:44.899Z,37.93
2019-02-08T08:37:31.859Z,33.95
2019-02-08T08:40:18.767Z,34.13
2019-02-08T08:42:55.033Z,31.33
2019-02-08T08:45:42.132Z,33.15
2019-02-08T08:48:18.193Z,31.25
2019-02-08T08:50:57.820Z,28.50
2019-02-08T08:53:30.930Z,29.95
2019-02-08T08:56:02.397Z,30.52
2019-02-08T08:58:35.720Z,28.00
2019-02-08T09:01:21.218Z,28.47
2019-02-08T09:03:57.309Z,27.40
2019-02-08T09:06:44.399Z,26.00
2019-02-08T09:09:20.962Z,26.05
2019-02-08T09:11:51.541Z,26.87
2019-02-08T09:14:22.197Z,25.95
2019-02-08T09:16:58.597Z,26.07
2019-02-08T09:19:31.440Z,27.05
2019-02-08T09:22:13.908Z,25.02
2019-02-08T09:27:15.159Z,24.52
2019-02-08T09:29:57.757Z,25.57
2019-02-08T09:32:28.039Z,29.98
2019-02-08T09:35:13.530Z,25.23
2019-02-08T09:37:43.992Z,25.05
2019-02-08T09:40:17.100Z,24.87
2019-02-08T09:42:47.718Z,25.30
2019-02-08T09:45:29.836Z,24.25
2019-02-08T09:48:03.056Z,24.90
2019-02-08T09:50:39.958Z,25.80
2019-02-08T09:53:23.143Z,24.75
2019-02-08T09:55:57.839Z,26.37
2019-02-08T09:58:43.642Z,25.30
2019-02-08T10:01:16.667Z,25.95
2019-02-08T10:03:52.658Z,25.40
2019-02-08T10:06:23.139Z,25.92
2019-02-08T10:09:12.401Z,27.55
2019-02-08T10:11:57.987Z,26.05
2019-02-08T10:14:45.309Z,25.65
2019-02-08T10:17:24.169Z,25.80
2019-02-08T10:19:59.250Z,25.30
2019-02-08T10:22:38.878Z,24.63
2019-02-08T10:25:14.995Z,26.00
2019-02-08T10:27:57.053Z,25.55
2019-02-08T10:30:27.421Z,25.20
2019-02-08T10:33:06.357Z,26.35
2019-02-08T10:35:39.490Z,26.50
2019-02-08T10:38:15.490Z,24.37
2019-02-08T10:41:02.487Z,25.23
2019-02-08T10:43:51.409Z,24.90
2019-02-08T10:46:29.429Z,24.00
2019-02-08T10:49:06.600Z,25.30
2019-02-08T10:51:37.832Z,24.25
2019-02-08T10:54:26.600Z,23.92
2019-02-08T10:57:06.458Z,24.23
2019-02-08T11:00:04.711Z,23.20
2019-02-08T11:02:40.082Z,22.40
2019-02-08T11:05:30.222Z,22.87
2019-02-08T11:08:23.218Z,22.17
2019-02-08T11:11:03.629Z,22.85
2019-02-08T11:13:35.309Z,21.82
2019-02-08T11:16:19.958Z,22.95
2019-02-08T11:19:08.296Z,22.30
2019-02-08T11:21:37.249Z,22.50
2019-02-08T11:24:12.832Z,23.07
2019-02-08T11:26:43.912Z,22.67
2019-02-08T11:29:13.391Z,23.15
2019-02-08T11:31:49.820Z,23.38
2019-02-08T11:34:19.515Z,23.83
2019-02-08T11:36:49.918Z,22.00
2019-02-08T11:39:23.271Z,22.40
2019-02-08T11:41:54.363Z,22.73
2019-02-08T11:44:26.824Z,23.02
2019-02-08T11:46:57.284Z,21.68
2019-02-08T11:49:30.547Z,21.83
2019-02-08T11:52:02.400Z,22.07
2019-02-08T11:54:32.748Z,22.65
2019-02-08T11:57:01.617Z,22.22
2019-02-08T11:59:30.800Z,23.38
2019-02-08T12:02:00.198Z,23.32
2019-02-08T12:04:29.997Z,21.65
2019-02-08T12:07:02.481Z,20.08
2019-02-08T12:09:32.833Z,21.40
2019-02-08T12:12:03.108Z,22.45
2019-02-08T12:14:36.142Z,21.30
2019-02-08T12:17:07.842Z,20.77
2019-02-08T12:19:38.221Z,20.62
2019-02-08T12:22:07.826Z,21.42
2019-02-08T12:24:40.627Z,20.92
2019-02-08T12:29:41.017Z,21.37
2019-02-08T12:32:11.436Z,21.85
2019-02-08T12:34:42.437Z,21.75
2019-02-08T12:37:11.963Z,21.80
2019-02-08T12:39:41.634Z,22.37
2019-02-08T12:42:14.076Z,23.27
2019-02-08T12:44:46.145Z,21.37
2019-02-08T12:47:15.203Z,21.97
2019-02-08T12:49:46.304Z,21.17
2019-02-08T12:52:16.380Z,22.25
2019-02-08T12:54:51.584Z,21.97
2019-02-08T12:57:24.328Z,22.37
2019-02-08T12:59:53.117Z,21.57
2019-02-08T13:02:24.910Z,21.57
2019-02-08T13:04:58.430Z,22.67
2019-02-08T13:07:39.196Z,21.37
2019-02-08T13:10:09.882Z,21.02
2019-02-08T13:12:40.219Z,21.07
2019-02-08T13:15:13.583Z,22.10
2019-02-08T13:17:53.983Z,22.58
2019-02-08T13:20:28.770Z,21.40
2019-02-08T13:22:59.744Z,21.35
2019-02-08T13:25:37.060Z,20.97
2019-02-08T13:28:05.760Z,23.18
2019-02-08T13:30:35.132Z,23.52
2019-02-08T13:33:04.552Z,22.58
2019-02-08T13:35:34.039Z,24.60
2019-02-08T13:38:04.156Z,28.10
2019-02-08T13:40:35.880Z,27.37
2019-02-08T13:43:04.549Z,28.27
2019-02-08T13:45:33.529Z,28.35
2019-02-08T13:48:08.323Z,29.77
2019-02-08T13:50:37.541Z,30.72
2019-02-08T13:53:14.122Z,29.63
2019-02-08T13:56:06.327Z,28.95
2019-02-08T13:58:27.510Z,30.77
2019-02-08T14:00:56.561Z,28.80
2019-02-08T14:03:26.509Z,29.48
2019-02-08T14:05:58.080Z,28.55
2019-02-08T14:08:28.510Z,29.93
2019-02-08T14:10:57.451Z,29.87
2019-02-08T14:13:25.967Z,30.27
2019-02-08T14:16:00.780Z,29.85
2019-02-08T14:18:29.472Z,31.15
2019-02-08T14:20:58.382Z,30.55
2019-02-08T14:23:29.053Z,31.27
2019-02-08T14:25:59.248Z,29.85
2019-02-08T14:28:30.350Z,35.17
2019-02-08T14:30:59.694Z,30.08
2019-02-08T14:33:31.830Z,29.27
2019-02-08T14:38:33.316Z,33.08
2019-02-08T14:41:06.271Z,32.03
2019-02-08T14:43:43.628Z,33.05
2019-02-08T14:46:14.711Z,33.28
2019-02-08T14:48:44.432Z,33.25
2019-02-08T14:51:18.361Z,29.92
2019-02-08T14:53:53.131Z,30.32
2019-02-08T14:56:22.863Z,32.45
2019-02-08T14:58:51.530Z,30.48
2019-02-08T15:01:20.402Z,36.13
2019-02-08T15:03:49.028Z,34.70
2019-02-08T15:06:20.165Z,31.40
2019-02-08T15:08:51.721Z,32.90
2019-02-08T15:11:20.516Z,35.35
2019-02-08T15:13:51.747Z,36.68
2019-02-08T15:16:22.951Z,40.75
2019-02-08T15:18:55.770Z,36.88
2019-02-08T15:21:25.784Z,41.20
2019-02-08T15:23:56.461Z,40.30
2019-02-08T15:26:27.178Z,27.32
2019-02-08T15:28:58.197Z,28.60
2019-02-08T15:31:29.975Z,29.40
2019-02-08T15:34:12.644Z,31.37
2019-02-08T15:36:49.008Z,34.63
2019-02-08T15:39:14.407Z,28.40
2019-02-08T15:41:47.956Z,27.48
2019-02-08T15:44:21.437Z,28.15
2019-02-08T15:46:50.490Z,27.07
2019-02-08T15:49:19.142Z,27.32
2019-02-08T15:55:31.470Z,32.63
2019-02-08T15:58:01.187Z,36.42
2019-02-08T16:00:31.571Z,48.73
2019-02-08T16:03:00.721Z,36.70
2019-02-08T16:05:30.422Z,35.88
2019-02-08T16:08:01.214Z,28.65
2019-02-08T16:10:31.719Z,33.18
2019-02-08T16:13:02.321Z,54.53
2019-02-08T16:15:33.574Z,31.12
2019-02-08T16:18:05.242Z,49.75
2019-02-08T16:20:35.207Z,48.48
2019-02-08T16:23:04.615Z,58.33
2019-02-08T16:25:33.957Z,37.10
2019-02-08T16:28:03.816Z,31.05
2019-02-08T16:30:37.209Z,28.55
2019-02-08T16:33:07.098Z,27.22
2019-02-08T16:35:41.135Z,27.03
2019-02-08T16:38:13.500Z,27.02
2019-02-08T16:40:42.110Z,28.92
2019-02-08T16:43:12.603Z,28.30
2019-02-08T16:45:43.538Z,28.52
2019-02-08T16:48:14.917Z,38.05
2019-02-08T16:50:44.224Z,38.50
2019-02-08T16:53:15.722Z,34.63
2019-02-08T16:55:45.922Z,47.67
2019-02-08T16:58:14.958Z,82.17
2019-02-08T17:00:45.283Z,98.17
2019-02-08T17:03:14.469Z,128.45
2019-02-08T17:06:02.916Z,113.70
2019-02-08T17:08:31.777Z,96.15
2019-02-08T17:11:04.905Z,140.12
2019-02-08T17:13:37.760Z,115.92
2019-02-08T17:16:06.755Z,160.85
2019-02-08T17:18:39.080Z,150.27
2019-02-08T17:21:09.895Z,153.05
2019-02-08T17:23:42.291Z,204.85
2019-02-08T17:26:13.310Z,166.90
2019-02-08T17:28:46.491Z,150.00
2019-02-08T17:31:17.068Z,123.55
2019-02-08T17:33:48.758Z,133.70
2019-02-08T17:36:23.144Z,136.70
2019-02-08T17:38:53.876Z,129.40
2019-02-08T17:41:24.682Z,113.10
2019-02-08T17:43:56.480Z,107.15
2019-02-08T17:46:28.830Z,107.17
2019-02-08T17:49:03.402Z,84.32
2019-02-08T17:51:32.132Z,89.50
2019-02-08T17:54:03.982Z,86.72
2019-02-08T17:56:32.663Z,116.90
2019-02-08T17:59:04.973Z,233.38
2019-02-08T18:01:39.575Z,92.50
2019-02-08T18:04:08.261Z,108.17
2019-02-08T18:06:40.900Z,62.80
2019-02-08T18:09:10.103Z,73.80
2019-02-08T18:11:40.908Z,129.23
2019-02-08T18:14:11.512Z,630.67
2019-02-08T18:16:44.689Z,692.77
2019-02-08T18:19:16.390Z,237.82
2019-02-08T18:21:48.043Z,281.68
2019-02-08T18:24:22.680Z,95.17
2019-02-08T18:26:53.591Z,63.05
2019-02-08T18:29:23.166Z,55.88
2019-02-08T18:31:53.354Z,50.92
2019-02-08T18:34:23.930Z,48.83
2019-02-08T18:36:55.395Z,80.28
2019-02-08T18:39:24.764Z,65.22
2019-02-08T18:41:54.963Z,59.03
2019-02-08T18:44:26.856Z,53.78
2019-02-08T18:47:00.917Z,49.23
2019-02-08T18:49:33.408Z,52.60
2019-02-08T18:52:04.838Z,50.55
2019-02-08T18:54:34.610Z,40.53
2019-02-08T18:57:06.282Z,38.53
2019-02-08T18:59:37.495Z,39.50
2019-02-08T19:02:10.008Z,43.95
2019-02-08T19:04:42.091Z,46.28
2019-02-08T19:07:11.347Z,39.23
2019-02-08T19:09:40.284Z,125.58
2019-02-08T19:12:12.022Z,86.82
2019-02-08T19:14:50.030Z,135.68
2019-02-08T19:17:20.973Z,52.62
2019-02-08T19:19:50.486Z,39.85
2019-02-08T19:22:19.488Z,46.55
2019-02-08T19:24:53.980Z,39.08
2019-02-08T19:27:23.159Z,41.02
2019-02-08T19:29:51.711Z,37.85
2019-02-08T19:32:20.563Z,37.73
2019-02-08T19:34:49.276Z,39.58
2019-02-08T19:37:18.159Z,38.28
2019-02-08T19:39:46.975Z,36.55
2019-02-08T19:42:15.701Z,38.05
2019-02-08T19:44:44.532Z,38.30
2019-02-08T19:47:13.491Z,36.85
2019-02-08T19:49:42.190Z,34.95
2019-02-08T19:52:10.848Z,34.88
2019-02-08T19:54:41.187Z,35.80
2019-02-08T19:57:10.106Z,38.17
2019-02-08T19:59:39.042Z,37.10
2019-02-08T20:02:07.762Z,38.23
2019-02-08T20:04:36.583Z,42.85
2019-02-08T20:07:05.522Z,40.03
2019-02-08T20:09:34.418Z,37.60
2019-02-08T20:12:06.323Z,37.88
2019-02-08T20:14:44.439Z,38.13
2019-02-08T20:17:13.390Z,39.25
2019-02-08T20:19:51.082Z,40.48
2019-02-08T20:22:19.964Z,44.15
2019-02-08T20:24:48.787Z,39.53
2019-02-08T20:27:23.463Z,39.48
2019-02-08T20:29:54.240Z,41.42
2019-02-08T20:32:22.927Z,40.25
2019-02-08T20:34:51.552Z,39.23
2019-02-08T20:37:20.069Z,48.78
2019-02-08T20:39:48.910Z,40.15
2019-02-08T20:42:17.595Z,43.80
2019-02-08T20:44:46.139Z,45.05
2019-02-08T20:47:14.687Z,39.23
2019-02-08T20:49:43.245Z,41.10
2019-02-08T20:52:11.857Z,40.70
2019-02-08T20:54:58.237Z,49.75
2019-02-08T20:57:19.640Z,49.75
2019-02-08T20:59:48.901Z,40.60
2019-02-08T21:02:17.529Z,44.30
2019-02-08T21:04:46.309Z,41.68
2019-02-08T21:07:15.143Z,45.98
2019-02-08T21:09:44.772Z,42.17
2019-02-08T21:12:13.798Z,42.85
2019-02-08T21:14:44.315Z,46.95
2019-02-08T21:17:12.890Z,42.35
2019-02-08T21:22:13.343Z,42.88
2019-02-08T21:24:59.538Z,44.55
2019-02-08T21:27:28.433Z,42.40
2019-02-08T21:29:57.325Z,47.60
2019-02-08T21:32:26.010Z,44.42
2019-02-08T21:34:54.962Z,45.30
2019-02-08T21:37:25.011Z,44.15
2019-02-08T21:39:53.837Z,41.25
2019-02-08T21:42:23.901Z,44.25
2019-02-08T21:44:52.698Z,48.02
2019-02-08T21:47:25.062Z,44.25
2019-02-08T21:49:53.889Z,46.20
2019-02-08T21:52:22.418Z,45.35
2019-02-08T21:54:51.377Z,45.08
2019-02-08T21:57:22.899Z,45.98
2019-02-08T21:59:54.502Z,44.05
2019-02-08T22:02:23.259Z,44.60
2019-02-08T22:04:51.925Z,43.17
2019-02-08T22:07:20.559Z,46.60
2019-02-08T22:09:49.372Z,43.17
2019-02-08T22:12:25.022Z,42.93
2019-02-08T22:14:53.616Z,42.93
2019-02-08T22:17:22.104Z,44.23
2019-02-08T22:19:51.958Z,42.55
2019-02-08T22:22:20.945Z,44.50
2019-02-08T22:28:06.181Z,45.03
2019-02-08T22:30:36.542Z,43.70
2019-02-08T22:33:06.608Z,43.35
2019-02-08T22:35:35.408Z,43.65
2019-02-08T22:38:04.139Z,45.23
2019-02-08T22:40:32.649Z,43.20
2019-02-08T22:43:02.337Z,42.62
2019-02-08T22:45:31.952Z,45.65
2019-02-08T22:48:00.622Z,44.00
2019-02-08T22:50:34.908Z,42.08
2019-02-08T22:53:03.798Z,42.75
2019-02-08T22:55:35.839Z,43.95
2019-02-08T22:58:05.795Z,43.98
2019-02-08T23:00:36.635Z,46.28
2019-02-08T23:05:34.875Z,41.83
2019-02-08T23:08:04.834Z,42.20
2019-02-08T23:10:33.933Z,42.03
2019-02-08T23:13:05.499Z,45.63
2019-02-08T23:15:34.306Z,42.67
2019-02-08T23:18:19.621Z,42.03
2019-02-08T23:20:49.765Z,39.70
2019-02-08T23:23:18.435Z,42.13
2019-02-08T23:25:49.851Z,44.13
2019-02-08T23:28:18.803Z,46.23
2019-02-08T23:30:47.721Z,40.03
2019-02-08T23:33:16.553Z,41.53
2019-02-08T23:35:45.115Z,42.08
2019-02-08T23:38:15.244Z,41.10
2019-02-08T23:40:47.286Z,44.33
2019-02-08T23:43:17.365Z,40.10
2019-02-08T23:45:46.010Z,40.15
2019-02-08T23:48:14.741Z,39.50
2019-02-08T23:50:50.385Z,41.58
2019-02-08T23:53:25.605Z,40.15
2019-02-08T23:55:57.560Z,40.55
2019-02-08T23:58:26.075Z,42.33
